Time;durP1;ratioP1;P1;durP2;ratioP2;P2;SDS_P1;SDS_P2;PMS_P1;PMS_P2;Temp;Humidity;BMP_temperature;BMP_pressure;BME280_temperature;BME280_humidity;BME280_pressure;Samples;Min_cycle;Max_cycle;Signal;HPM_P1;HPM_P2
2024/01/27 00:02:25;;;;;;;4.20;0.90;;;;;;;3.71;84.69;99240.89;226866;1274;22552;-84
2024/01/27 00:07:31;;;;;;;3.00;0.80;;;;;;;3.68;84.55;99262.58;226834;1274;24309;-85
2024/01/27 00:12:33;;;;;;;5.00;1.60;;;;;;;3.67;84.25;99269.81;226939;1274;22576;-86
2024/01/27 00:17:35;;;;;;;3.40;0.80;;;;;;;3.70;83.92;99285.02;226804;1274;22634;-85
2024/01/27 00:22:38;;;;;;;4.90;0.90;;;;;;;3.74;83.60;99295.64;227020;1274;22550;-85
2024/01/27 00:27:41;;;;;;;4.10;1.10;;;;;;;3.80;83.41;99310.51;227058;1273;22577;-85
2024/01/27 00:32:44;;;;;;;6.40;1.20;;;;;;;3.86;83.36;99308.73;226925;1274;22533;-86
2024/01/27 00:37:49;;;;;;;5.30;1.40;;;;;;;3.92;83.16;99321.67;226838;1274;22537;-84
2024/01/27 00:42:51;;;;;;;4.90;1.00;;;;;;;3.95;82.93;99331.14;227054;1274;22551;-86
2024/01/27 00:47:53;;;;;;;3.80;1.30;;;;;;;3.96;83.16;99343.11;226908;1274;22565;-85
2024/01/27 00:52:56;;;;;;;4.50;1.20;;;;;;;3.95;82.88;99357.97;226970;1274;25249;-84
2024/01/27 00:58:00;;;;;;;5.10;1.40;;;;;;;3.96;82.93;99365.13;226931;1274;22542;-84
2024/01/27 01:03:02;;;;;;;5.90;1.30;;;;;;;3.94;82.60;99381.58;227097;1273;22651;-84
2024/01/27 01:08:06;;;;;;;6.40;1.20;;;;;;;3.96;82.13;99376.10;227043;1273;22583;-84
2024/01/27 01:13:08;;;;;;;5.20;1.20;;;;;;;3.95;81.92;99374.56;227087;1268;22652;-85
2024/01/27 01:18:11;;;;;;;5.20;1.50;;;;;;;3.95;81.78;99381.38;226887;1263;22563;-85
2024/01/27 01:23:14;;;;;;;9.80;1.10;;;;;;;3.94;81.73;99387.16;227216;1274;22555;-85
2024/01/27 01:28:16;;;;;;;3.90;1.10;;;;;;;3.95;81.32;99386.77;227039;1273;22575;-85
2024/01/27 01:33:18;;;;;;;9.30;1.30;;;;;;;3.90;81.39;99383.31;227084;1272;22527;-86
2024/01/27 01:38:20;;;;;;;7.20;1.60;;;;;;;3.86;81.22;99380.52;226983;1272;22545;-85
2024/01/27 01:43:23;;;;;;;7.10;1.70;;;;;;;3.85;80.72;99378.52;227195;1254;22543;-85
2024/01/27 01:48:25;;;;;;;3.60;0.90;;;;;;;3.82;80.63;99382.40;227109;1267;22707;-86
2024/01/27 01:53:28;;;;;;;7.70;1.10;;;;;;;3.77;80.36;99383.36;226880;1260;23223;-85
2024/01/27 01:58:34;;;;;;;5.40;1.20;;;;;;;3.74;80.16;99379.81;227112;1273;22598;-85
2024/01/27 02:03:36;;;;;;;6.80;1.00;;;;;;;3.69;80.16;99370.53;227037;1272;22564;-86
2024/01/27 02:08:38;;;;;;;4.70;1.20;;;;;;;3.63;80.22;99368.92;227119;1273;25268;-86
2024/01/27 02:13:41;;;;;;;6.50;1.30;;;;;;;3.58;80.44;99374.52;227178;1274;25416;-84
2024/01/27 02:18:44;;;;;;;7.20;1.50;;;;;;;3.57;80.32;99371.86;226981;1273;22528;-84
2024/01/27 02:23:46;;;;;;;7.50;1.30;;;;;;;3.57;80.13;99372.02;227023;1270;22546;-83
2024/01/27 02:28:49;;;;;;;6.80;1.60;;;;;;;3.60;79.70;99376.64;227002;1273;22626;-86
2024/01/27 02:33:52;;;;;;;5.10;1.30;;;;;;;3.65;79.54;99388.80;227081;1271;23297;-83
2024/01/27 02:38:54;;;;;;;5.30;1.50;;;;;;;3.69;79.40;99390.70;227011;1273;22490;-85
2024/01/27 02:43:57;;;;;;;10.20;1.40;;;;;;;3.73;79.36;99392.82;226926;1274;22559;-84
2024/01/27 02:48:59;;;;;;;7.40;1.50;;;;;;;3.76;79.17;99402.16;227099;1272;22563;-82
2024/01/27 02:54:01;;;;;;;6.80;1.20;;;;;;;3.79;79.02;99404.88;227011;1271;22675;-85
2024/01/27 02:59:03;;;;;;;7.80;1.50;;;;;;;3.81;78.73;99399.12;226965;1274;22593;-85
2024/01/27 03:04:06;;;;;;;7.10;1.40;;;;;;;3.83;78.38;99409.56;227004;1273;22590;-85
2024/01/27 03:09:10;;;;;;;8.50;1.40;;;;;;;3.86;77.95;99411.41;227217;1270;25480;-85
2024/01/27 03:14:13;;;;;;;6.70;1.40;;;;;;;3.86;77.86;99405.95;227029;1274;22554;-85
2024/01/27 03:19:15;;;;;;;7.10;1.60;;;;;;;3.86;77.68;99405.76;226999;1274;22581;-85
2024/01/27 03:24:18;;;;;;;6.50;1.50;;;;;;;3.86;77.47;99428.60;227016;1274;22559;-86
2024/01/27 03:29:21;;;;;;;5.80;1.40;;;;;;;3.87;76.95;99435.01;227034;1270;22562;-85
2024/01/27 03:34:27;;;;;;;10.00;1.60;;;;;;;3.85;76.96;99438.95;227073;1270;22488;-85
2024/01/27 03:39:29;;;;;;;9.40;1.40;;;;;;;3.86;77.00;99457.41;226920;1274;22547;-84
2024/01/27 03:44:31;;;;;;;8.20;1.20;;;;;;;3.84;76.72;99459.31;226974;1274;22547;-84
2024/01/27 03:49:34;;;;;;;3.90;1.20;;;;;;;3.81;76.27;99457.98;227039;1274;22559;-85
2024/01/27 03:54:40;;;;;;;6.90;1.10;;;;;;;3.80;76.04;99463.96;227083;1272;23052;-83
2024/01/27 03:59:43;;;;;;;6.50;1.30;;;;;;;3.79;76.18;99467.55;227016;1267;22546;-83
2024/01/27 04:04:45;;;;;;;7.40;1.30;;;;;;;3.77;75.87;99476.28;226835;1274;22546;-83
2024/01/27 04:09:47;;;;;;;4.90;1.00;;;;;;;3.76;75.65;99500.42;227001;1274;22560;-83
2024/01/27 04:14:50;;;;;;;9.90;1.30;;;;;;;3.76;75.11;99480.84;227032;1270;22633;-83
2024/01/27 04:19:53;;;;;;;5.20;1.50;;;;;;;3.75;75.09;99494.72;226837;1273;24554;-84
2024/01/27 04:24:56;;;;;;;8.60;1.60;;;;;;;3.75;74.60;99500.80;226975;1272;22547;-83
2024/01/27 04:29:59;;;;;;;3.60;1.20;;;;;;;3.76;74.46;99505.41;226820;1270;22543;-84
2024/01/27 04:35:01;;;;;;;5.20;1.50;;;;;;;3.75;74.35;99516.29;226927;1271;25437;-83
2024/01/27 04:40:08;;;;;;;7.80;1.50;;;;;;;3.75;74.44;99523.28;226917;1274;22563;-84
2024/01/27 04:45:14;;;;;;;8.40;1.50;;;;;;;3.73;74.25;99525.68;226809;1269;22536;-85
2024/01/27 04:50:17;;;;;;;5.90;1.40;;;;;;;3.72;74.31;99528.23;227020;1270;22550;-85
2024/01/27 04:55:19;;;;;;;4.90;1.30;;;;;;;3.71;74.26;99533.23;227009;1274;22597;-84
2024/01/27 05:00:22;;;;;;;8.90;1.90;;;;;;;3.68;74.44;99543.04;226844;1270;25360;-84
2024/01/27 05:05:25;;;;;;;7.00;1.30;;;;;;;3.65;74.44;99546.40;227030;1274;22571;-85
2024/01/27 05:10:27;;;;;;;6.70;1.50;;;;;;;3.63;74.53;99545.71;226761;1274;22580;-83
2024/01/27 05:15:29;;;;;;;8.20;1.40;;;;;;;3.61;74.29;99548.98;226772;1274;22545;-84
2024/01/27 05:20:31;;;;;;;7.40;1.40;;;;;;;3.60;74.28;99546.48;226810;1270;22590;-84
2024/01/27 05:25:33;;;;;;;8.20;1.60;;;;;;;3.58;74.07;99551.52;226799;1273;22541;-84
2024/01/27 05:30:35;;;;;;;7.50;1.50;;;;;;;3.55;74.20;99544.78;226809;1274;22541;-83
2024/01/27 05:35:38;;;;;;;9.90;1.30;;;;;;;3.52;74.09;99551.63;226947;1271;22562;-84
2024/01/27 05:40:40;;;;;;;8.50;1.60;;;;;;;3.51;74.08;99554.36;226890;1274;22545;-85
2024/01/27 05:45:44;;;;;;;8.20;1.60;;;;;;;3.49;73.78;99555.58;226744;1274;22573;-85
2024/01/27 05:50:58;;;;;;;8.90;1.50;;;;;;;3.47;73.72;99565.15;226927;1272;22581;-81
2024/01/27 05:56:00;;;;;;;6.10;1.50;;;;;;;3.45;73.85;99570.35;227180;1271;22543;-85
2024/01/27 06:01:03;;;;;;;8.10;1.70;;;;;;;3.43;73.85;99562.85;226910;1274;22536;-84
2024/01/27 06:06:06;;;;;;;9.20;1.90;;;;;;;3.42;73.66;99579.95;226746;1254;24787;-86
2024/01/27 06:11:08;;;;;;;6.50;1.50;;;;;;;3.42;73.71;99582.97;226744;1273;22550;-85
2024/01/27 06:16:11;;;;;;;8.40;1.40;;;;;;;3.39;74.03;99583.02;226695;1267;22686;-85
2024/01/27 06:21:14;;;;;;;9.40;1.50;;;;;;;3.36;74.12;99586.71;226796;1274;22549;-85
2024/01/27 06:26:16;;;;;;;7.40;1.70;;;;;;;3.33;74.36;99598.45;226629;1274;22677;-84
2024/01/27 06:31:19;;;;;;;8.60;2.00;;;;;;;3.31;74.39;99598.28;227082;1268;22539;-85
2024/01/27 06:36:24;;;;;;;7.50;1.50;;;;;;;3.29;74.52;99604.86;226881;1274;23447;-85
2024/01/27 06:41:26;;;;;;;7.90;1.90;;;;;;;3.28;73.97;99607.90;227121;1271;22543;-84
2024/01/27 06:46:29;;;;;;;5.80;1.60;;;;;;;3.28;74.20;99612.95;226944;1271;22543;-84
2024/01/27 06:51:31;;;;;;;5.50;1.70;;;;;;;3.28;74.24;99613.34;226857;1272;22595;-86
2024/01/27 06:56:34;;;;;;;10.80;1.60;;;;;;;3.28;73.81;99617.84;226654;1274;22558;-85
2024/01/27 07:01:36;;;;;;;7.10;1.50;;;;;;;3.28;73.63;99621.48;226974;1271;22560;-85
2024/01/27 07:06:39;;;;;;;7.20;1.30;;;;;;;3.29;73.50;99624.55;227072;1271;22618;-85
2024/01/27 07:11:41;;;;;;;7.90;1.60;;;;;;;3.31;73.49;99629.10;227084;1271;25023;-85
2024/01/27 07:16:43;;;;;;;9.30;1.60;;;;;;;3.32;73.38;99638.29;227158;1274;22566;-84
2024/01/27 07:21:46;;;;;;;5.80;1.50;;;;;;;3.33;73.48;99641.88;226873;1271;23082;-85
2024/01/27 07:26:51;;;;;;;7.90;2.00;;;;;;;3.33;73.37;99646.03;227069;1268;22586;-84
2024/01/27 07:31:57;;;;;;;7.70;1.60;;;;;;;3.34;73.53;99640.90;227126;1274;22586;-85
2024/01/27 07:37:00;;;;;;;4.90;1.00;;;;;;;3.34;73.18;99633.59;226954;1274;25722;-84
2024/01/27 07:42:02;;;;;;;7.80;1.70;;;;;;;3.33;72.79;99624.42;226960;1272;22599;-83
2024/01/27 07:47:05;;;;;;;6.90;1.50;;;;;;;3.35;72.99;99628.08;226856;1273;22587;-84
2024/01/27 07:52:08;;;;;;;6.60;1.40;;;;;;;3.38;73.10;99633.48;227022;1272;22478;-85
2024/01/27 07:57:11;;;;;;;13.80;6.30;;;;;;;3.39;72.86;99635.96;226886;1261;22615;-84
2024/01/27 08:02:14;;;;;;;9.70;2.00;;;;;;;3.38;72.75;99634.64;226915;1274;22544;-84
2024/01/27 08:07:18;;;;;;;7.30;1.50;;;;;;;3.40;72.83;99650.02;226667;1274;22549;-84
2024/01/27 08:12:20;;;;;;;6.10;1.70;;;;;;;3.39;72.72;99659.96;225169;1267;25624;-84
2024/01/27 08:17:22;;;;;;;6.90;1.70;;;;;;;3.38;72.62;99663.17;225116;1262;22646;-82
2024/01/27 08:22:25;;;;;;;7.00;1.10;;;;;;;3.38;72.34;99670.04;225046;1267;22499;-82
2024/01/27 08:27:27;;;;;;;9.00;1.70;;;;;;;3.38;72.24;99658.86;225104;1266;23051;-83
2024/01/27 08:32:30;;;;;;;5.60;1.60;;;;;;;3.39;72.51;99653.56;225140;1267;22869;-80
2024/01/27 08:37:38;;;;;;;10.10;2.10;;;;;;;3.39;72.46;99650.59;224915;1273;22911;-84
2024/01/27 08:42:40;;;;;;;8.70;2.30;;;;;;;3.42;72.42;99644.09;224754;1267;179925;-82
2024/01/27 08:47:43;;;;;;;5.00;1.60;;;;;;;3.44;72.50;99646.02;225029;1270;25842;-83
2024/01/27 08:52:46;;;;;;;8.30;2.00;;;;;;;3.43;72.41;99641.92;225004;1268;23064;-79
2024/01/27 08:57:49;;;;;;;9.00;1.70;;;;;;;3.41;72.69;99649.36;224802;1267;22565;-78
2024/01/27 09:02:52;;;;;;;7.60;1.80;;;;;;;3.38;73.00;99659.02;224757;1259;22557;-80
2024/01/27 09:07:54;;;;;;;7.10;1.70;;;;;;;3.32;73.58;99664.55;224642;1268;23042;-79
2024/01/27 09:12:56;;;;;;;10.10;1.80;;;;;;;3.18;73.92;99669.66;224670;1253;27453;-80
2024/01/27 09:17:58;;;;;;;8.40;1.80;;;;;;;3.09;74.48;99678.02;224526;1266;24224;-78
2024/01/27 09:23:01;;;;;;;8.50;3.10;;;;;;;3.01;75.34;99686.43;224300;1274;22539;-78
2024/01/27 09:28:03;;;;;;;6.50;1.60;;;;;;;2.91;75.90;99683.06;224541;1267;22553;-80
2024/01/27 09:33:05;;;;;;;6.40;1.70;;;;;;;2.80;76.46;99681.09;224507;1264;23117;-80
2024/01/27 09:38:09;;;;;;;7.50;2.10;;;;;;;2.80;76.99;99677.80;224474;1268;22951;-78
2024/01/27 09:43:14;;;;;;;10.70;2.10;;;;;;;2.83;77.25;99676.17;224535;1268;22540;-78
2024/01/27 09:48:17;;;;;;;9.20;2.10;;;;;;;2.82;77.38;99672.20;224536;1262;22544;-78
2024/01/27 09:53:20;;;;;;;7.10;1.80;;;;;;;2.86;77.33;99677.31;224539;1267;24215;-78
2024/01/27 09:58:26;;;;;;;9.90;2.20;;;;;;;2.97;77.26;99659.29;224729;1262;22562;-80
2024/01/27 10:03:28;;;;;;;10.50;2.10;;;;;;;3.10;77.06;99639.30;224498;1267;22729;-79
2024/01/27 10:08:31;;;;;;;8.60;2.30;;;;;;;3.22;76.80;99641.52;224564;1267;22562;-79
2024/01/27 10:13:33;;;;;;;7.50;1.60;;;;;;;3.28;76.71;99628.97;224603;1267;22540;-79
2024/01/27 10:18:35;;;;;;;9.30;2.70;;;;;;;3.37;76.82;99623.24;224671;1267;23134;-79
2024/01/27 10:23:41;;;;;;;7.10;1.80;;;;;;;3.41;76.78;99636.47;224572;1262;22975;-78
2024/01/27 10:28:47;;;;;;;8.70;2.50;;;;;;;3.44;76.50;99637.80;224346;1267;22568;-78
2024/01/27 10:33:54;;;;;;;7.00;1.90;;;;;;;3.51;76.06;99640.57;224266;1254;25425;-79
2024/01/27 10:38:56;;;;;;;7.00;1.90;;;;;;;3.57;76.14;99657.48;224533;1268;22642;-74
2024/01/27 10:43:59;;;;;;;3.80;1.30;;;;;;;3.61;76.22;99647.77;224288;1268;22685;-80
2024/01/27 10:49:04;;;;;;;5.50;1.90;;;;;;;3.67;75.91;99648.02;227674;1268;22299;-79
2024/01/27 10:54:12;;;;;;;7.00;1.80;;;;;;;3.78;75.56;99640.66;227454;1267;22206;-78
2024/01/27 10:59:19;;;;;;;7.80;1.60;;;;;;;3.91;75.45;99634.94;227662;1271;22196;-78
2024/01/27 11:04:24;;;;;;;10.70;2.30;;;;;;;4.04;75.12;99634.31;227686;1267;22494;-78
2024/01/27 11:09:28;;;;;;;8.20;2.00;;;;;;;4.14;74.51;99636.70;227720;1270;24290;-78
2024/01/27 11:14:31;;;;;;;8.40;1.60;;;;;;;4.20;74.56;99630.69;225761;1255;23091;-77
2024/01/27 11:19:34;;;;;;;9.90;1.70;;;;;;;4.21;73.99;99641.13;224821;1268;25295;-78
2024/01/27 11:24:36;;;;;;;9.30;2.40;;;;;;;4.21;73.93;99651.09;224953;1270;22571;-79
2024/01/27 11:29:47;;;;;;;7.90;2.30;;;;;;;4.18;73.87;99655.81;224660;1266;22573;-78
2024/01/27 11:34:49;;;;;;;;;;;;;;;4.03;73.92;99652.02;224917;1273;23031;-78
2024/01/27 11:39:54;;;;;;;5.50;1.80;;;;;;;3.91;74.49;99651.42;224559;1269;24318;-75
2024/01/27 11:44:56;;;;;;;6.80;1.60;;;;;;;3.90;74.38;99652.73;224835;1275;22654;-76
2024/01/27 11:49:58;;;;;;;7.30;1.80;;;;;;;3.90;74.47;99654.66;224919;1253;26290;-77
2024/01/27 11:55:01;;;;;;;9.80;2.10;;;;;;;3.93;74.64;99676.76;226125;1272;22560;-77
2024/01/27 12:00:04;;;;;;;8.00;1.80;;;;;;;3.94;74.40;99673.02;226073;1274;22544;-76
2024/01/27 12:05:08;;;;;;;7.60;1.70;;;;;;;3.80;75.43;99692.61;225810;1274;22708;-76
2024/01/27 12:10:11;;;;;;;10.50;2.30;;;;;;;3.64;76.20;99693.66;226096;1274;24248;-75
2024/01/27 12:15:15;;;;;;;8.90;2.20;;;;;;;3.58;76.53;99702.39;226133;1271;22937;-76
2024/01/27 12:20:17;;;;;;;9.30;2.30;;;;;;;3.51;77.23;99702.52;226125;1258;22589;-76
2024/01/27 12:25:21;;;;;;;11.70;2.20;;;;;;;3.36;77.83;99714.85;226331;1272;22594;-76
2024/01/27 12:30:22;;;;;;;8.50;2.50;;;;;;;3.19;78.63;99731.76;226185;1274;25239;-76
2024/01/27 12:35:26;;;;;;;11.00;1.80;;;;;;;3.03;79.49;99733.33;226374;1274;22543;-75
2024/01/27 12:40:28;;;;;;;9.20;2.40;;;;;;;2.91;80.19;99731.45;226298;1274;22559;-75
2024/01/27 12:45:31;;;;;;;9.00;2.60;;;;;;;2.84;80.97;99745.54;226449;1269;25457;-76
2024/01/27 12:50:33;;;;;;;10.00;2.20;;;;;;;2.77;81.35;99747.59;226223;1274;25343;-76
2024/01/27 12:55:35;;;;;;;10.90;2.10;;;;;;;2.71;81.63;99751.38;226386;1272;22560;-76
2024/01/27 13:00:38;;;;;;;10.20;2.10;;;;;;;2.63;82.26;99754.41;226162;1274;22979;-76
2024/01/27 13:05:40;;;;;;;7.30;2.50;;;;;;;2.60;82.71;99753.59;226451;1272;22561;-77
2024/01/27 13:10:42;;;;;;;13.10;2.30;;;;;;;2.63;83.07;99757.91;226433;1274;24238;-76
2024/01/27 13:15:44;;;;;;;13.50;2.90;;;;;;;2.65;83.17;99756.36;226292;1274;22547;-77
2024/01/27 13:20:47;;;;;;;13.70;2.50;;;;;;;2.69;83.56;99760.02;226402;1274;22544;-76
2024/01/27 13:25:50;;;;;;;8.60;2.50;;;;;;;2.71;83.59;99752.90;226446;1271;24233;-77
2024/01/27 13:31:12;;;;;;;15.60;2.90;;;;;;;2.77;83.84;99754.59;226460;1273;23117;-75
2024/01/27 13:36:14;;;;;;;11.50;2.60;;;;;;;2.83;83.51;99761.40;226242;1274;22539;-76
2024/01/27 13:41:16;;;;;;;11.00;3.20;;;;;;;2.91;83.21;99773.20;226319;1274;22544;-76
2024/01/27 13:46:18;;;;;;;9.60;2.70;;;;;;;2.97;83.01;99771.70;226611;1271;22578;-76
2024/01/27 13:51:20;;;;;;;8.50;2.50;;;;;;;3.01;83.02;99790.15;226351;1274;22542;-75
2024/01/27 13:56:23;;;;;;;10.20;2.30;;;;;;;3.04;82.92;99793.04;226424;1274;22555;-76
2024/01/27 14:01:24;;;;;;;9.10;2.20;;;;;;;3.06;82.88;99808.23;226427;1274;22716;-77
2024/01/27 14:06:27;;;;;;;8.80;1.80;;;;;;;3.05;83.02;99822.06;226251;1271;22537;-78
2024/01/27 14:11:29;;;;;;;11.50;2.60;;;;;;;3.03;82.82;99816.77;226214;1274;22659;-76
2024/01/27 14:16:32;;;;;;;8.80;2.30;;;;;;;3.04;82.76;99835.76;226299;1274;22547;-77
2024/01/27 14:21:34;;;;;;;14.40;3.30;;;;;;;3.06;82.76;99834.53;226269;1274;22683;-76
2024/01/27 14:26:37;;;;;;;11.60;3.10;;;;;;;3.10;83.07;99843.14;226332;1274;22579;-77
2024/01/27 14:31:39;;;;;;;15.00;3.10;;;;;;;3.12;82.87;99849.56;226247;1274;24365;-77
2024/01/27 14:36:43;;;;;;;9.50;2.50;;;;;;;3.15;82.95;99850.70;226231;1274;22555;-76
2024/01/27 14:41:45;;;;;;;11.20;2.50;;;;;;;3.18;82.96;99860.38;226482;1274;22544;-78
2024/01/27 14:46:47;;;;;;;17.90;3.40;;;;;;;3.24;82.67;99859.82;226297;1274;22552;-77
2024/01/27 14:51:51;;;;;;;8.20;2.50;;;;;;;3.29;82.80;99876.83;226542;1268;22552;-77
2024/01/27 14:56:53;;;;;;;10.20;2.60;;;;;;;3.31;82.67;99878.59;226250;1274;22639;-77
2024/01/27 15:01:57;;;;;;;8.50;2.90;;;;;;;3.32;82.75;99889.29;226293;1274;25291;-77
2024/01/27 15:06:59;;;;;;;12.20;3.30;;;;;;;3.34;82.65;99889.35;226432;1272;22536;-76
2024/01/27 15:12:01;;;;;;;12.30;3.60;;;;;;;3.36;82.67;99901.95;226393;1272;24397;-77
2024/01/27 15:17:04;;;;;;;10.20;2.40;;;;;;;3.36;82.57;99912.86;226542;1271;22552;-77
2024/01/27 15:22:06;;;;;;;12.60;3.40;;;;;;;3.35;82.81;99911.38;226440;1273;22534;-77
2024/01/27 15:27:08;;;;;;;16.70;2.90;;;;;;;3.34;82.97;99922.80;226486;1274;22562;-77
2024/01/27 15:32:17;;;;;;;16.00;3.20;;;;;;;3.35;83.17;99933.70;226385;1258;22554;-77
2024/01/27 15:37:19;;;;;;;12.20;3.30;;;;;;;3.37;83.16;99942.08;226337;1258;22543;-76
2024/01/27 15:42:22;;;;;;;10.60;2.80;;;;;;;3.39;83.10;99943.14;226299;1274;22557;-76
2024/01/27 15:47:24;;;;;;;13.90;2.80;;;;;;;3.41;83.16;99942.56;226258;1274;22562;-76
2024/01/27 15:52:26;;;;;;;12.80;3.80;;;;;;;3.44;82.89;99956.66;226531;1274;22530;-77
2024/01/27 15:57:30;;;;;;;7.00;2.60;;;;;;;3.49;82.78;99960.51;226426;1272;22546;-77
2024/01/27 16:02:32;;;;;;;10.50;3.10;;;;;;;3.52;82.82;99972.83;226503;1272;22576;-76
2024/01/27 16:07:34;;;;;;;14.30;2.90;;;;;;;3.56;82.54;99985.92;226569;1274;22532;-77
2024/01/27 16:12:36;;;;;;;11.20;3.30;;;;;;;3.61;82.53;99997.05;226188;1274;22554;-76
2024/01/27 16:17:38;;;;;;;10.70;3.30;;;;;;;3.65;82.40;100006.98;226406;1273;22561;-77
2024/01/27 16:22:41;;;;;;;11.90;3.80;;;;;;;3.70;82.02;100018.46;226438;1273;22558;-76
2024/01/27 16:27:43;;;;;;;13.40;4.20;;;;;;;3.74;82.17;100023.24;226258;1274;22554;-76
2024/01/27 16:32:45;;;;;;;9.50;3.30;;;;;;;3.75;81.82;100037.06;226418;1272;22555;-77
2024/01/27 16:37:47;;;;;;;14.90;3.90;;;;;;;3.78;81.87;100046.13;226491;1272;22543;-79
2024/01/27 16:42:49;;;;;;;10.50;3.60;;;;;;;3.80;81.71;100058.30;226432;1273;22652;-77
2024/01/27 16:47:51;;;;;;;13.00;3.90;;;;;;;3.80;81.47;100067.40;226481;1273;22551;-78
2024/01/27 16:52:53;;;;;;;11.10;3.50;;;;;;;3.81;81.33;100074.33;226444;1274;24653;-77
2024/01/27 16:57:56;;;;;;;17.50;3.20;;;;;;;3.84;81.30;100082.05;226283;1274;24727;-77
2024/01/27 17:02:58;;;;;;;11.50;3.60;;;;;;;3.92;80.69;100086.23;226269;1274;22562;-77
2024/01/27 17:08:01;;;;;;;14.10;3.20;;;;;;;3.97;80.33;100087.27;226255;1274;22566;-77
2024/01/27 17:13:03;;;;;;;9.20;2.90;;;;;;;3.98;80.36;100091.86;226288;1274;22562;-78
2024/01/27 17:18:06;;;;;;;12.10;3.00;;;;;;;4.01;79.80;100105.95;226246;1274;22574;-78
2024/01/27 17:23:08;;;;;;;9.00;2.90;;;;;;;4.04;79.77;100125.41;226480;1271;22562;-77
2024/01/27 17:28:11;;;;;;;10.80;2.50;;;;;;;4.04;79.75;100136.05;226364;1274;22541;-77
2024/01/27 17:33:13;;;;;;;9.30;3.00;;;;;;;4.04;79.68;100143.54;226318;1274;23017;-78
2024/01/27 17:38:15;;;;;;;8.50;2.60;;;;;;;4.04;79.62;100150.30;226201;1274;25245;-77
2024/01/27 17:43:17;;;;;;;8.30;2.80;;;;;;;4.05;79.33;100156.19;226386;1274;22551;-77
2024/01/27 17:48:21;;;;;;;8.10;3.30;;;;;;;4.04;79.33;100156.62;226484;1274;22588;-77
2024/01/27 17:53:23;;;;;;;12.30;3.70;;;;;;;4.03;79.25;100173.05;226209;1274;22557;-77
2024/01/27 17:58:25;;;;;;;11.20;3.40;;;;;;;3.99;78.95;100178.44;226241;1274;22552;-78
2024/01/27 18:03:27;;;;;;;10.10;2.90;;;;;;;3.93;79.08;100191.77;226372;1272;22552;-77
2024/01/27 18:08:29;;;;;;;9.40;2.70;;;;;;;3.84;79.08;100207.17;226396;1274;22552;-77
2024/01/27 18:13:32;;;;;;;10.80;3.20;;;;;;;3.75;79.30;100214.31;226452;1274;27194;-76
2024/01/27 18:18:35;;;;;;;8.80;3.00;;;;;;;3.63;79.28;100221.27;226356;1274;22559;-76
2024/01/27 18:23:37;;;;;;;10.80;2.90;;;;;;;3.51;79.48;100231.00;226297;1275;22540;-75
2024/01/27 18:28:39;;;;;;;16.40;3.90;;;;;;;3.40;79.66;100237.33;226471;1272;24226;-77
2024/01/27 18:33:41;;;;;;;11.40;2.90;;;;;;;3.34;79.72;100244.94;226379;1274;22584;-76
2024/01/27 18:38:44;;;;;;;12.80;3.40;;;;;;;3.26;79.95;100241.64;226214;1274;22610;-77
2024/01/27 18:43:47;;;;;;;13.10;3.50;;;;;;;3.18;79.94;100244.44;226237;1274;22610;-77
2024/01/27 18:48:49;;;;;;;10.70;4.00;;;;;;;3.12;80.21;100248.52;226491;1272;22554;-77
2024/01/27 18:53:51;;;;;;;15.80;4.40;;;;;;;3.06;80.29;100259.87;226506;1274;22554;-77
2024/01/27 18:58:53;;;;;;;11.30;3.80;;;;;;;3.03;80.53;100261.13;226226;1274;22577;-77
2024/01/27 19:03:56;;;;;;;13.70;3.80;;;;;;;3.00;80.58;100269.68;226464;1274;22559;-76
2024/01/27 19:08:59;;;;;;;8.80;3.10;;;;;;;2.97;80.68;100276.36;226575;1273;22548;-78
2024/01/27 19:14:03;;;;;;;12.70;4.10;;;;;;;2.98;80.83;100283.42;226162;1274;22553;-78
2024/01/27 19:19:05;;;;;;;14.50;3.40;;;;;;;2.98;80.97;100289.14;226301;1274;22658;-77
2024/01/27 19:24:07;;;;;;;11.40;3.50;;;;;;;2.97;80.98;100290.55;226231;1275;25278;-77
2024/01/27 19:29:10;;;;;;;16.60;3.70;;;;;;;2.98;81.14;100301.83;226390;1274;25290;-78
2024/01/27 19:34:13;;;;;;;17.50;5.10;;;;;;;3.00;81.34;100313.37;226433;1267;22541;-77
2024/01/27 19:39:15;;;;;;;14.50;5.50;;;;;;;2.98;81.31;100318.36;226309;1258;23359;-78
2024/01/27 19:44:17;;;;;;;17.80;6.40;;;;;;;2.96;81.52;100326.69;226322;1273;22579;-76
2024/01/27 19:49:19;;;;;;;12.00;4.90;;;;;;;2.94;81.70;100336.56;226491;1271;22550;-77
2024/01/27 19:54:21;;;;;;;21.00;6.20;;;;;;;2.93;81.73;100345.04;226461;1274;22564;-76
2024/01/27 19:59:23;;;;;;;19.10;5.80;;;;;;;2.90;81.95;100354.45;226377;1273;22618;-77
2024/01/27 20:04:25;;;;;;;18.00;6.10;;;;;;;2.84;82.03;100357.23;226197;1274;22552;-77
2024/01/27 20:09:29;;;;;;;17.80;6.40;;;;;;;2.79;82.23;100365.23;226261;1266;22548;-77
2024/01/27 20:14:31;;;;;;;17.20;5.50;;;;;;;2.74;82.42;100369.89;226304;1270;22656;-76
2024/01/27 20:19:33;;;;;;;16.90;5.90;;;;;;;2.69;82.42;100375.80;226124;1260;23000;-76
2024/01/27 20:24:39;;;;;;;20.20;5.80;;;;;;;2.66;82.61;100386.10;226440;1273;22561;-76
2024/01/27 20:29:42;;;;;;;13.70;5.30;;;;;;;2.64;82.80;100393.69;226540;1271;22540;-76
2024/01/27 20:34:44;;;;;;;18.80;5.50;;;;;;;2.61;82.85;100397.35;226349;1274;22574;-75
2024/01/27 20:39:47;;;;;;;18.20;5.30;;;;;;;2.60;83.12;100403.37;226366;1274;22547;-78
2024/01/27 20:44:50;;;;;;;17.80;5.30;;;;;;;2.59;83.27;100405.65;226010;1274;153389;-78
2024/01/27 20:49:53;;;;;;;15.80;5.50;;;;;;;2.61;83.35;100416.14;226396;1274;22568;-76
2024/01/27 20:54:55;;;;;;;15.60;5.70;;;;;;;2.62;83.49;100417.98;226509;1272;24276;-77
2024/01/27 20:59:58;;;;;;;19.40;5.40;;;;;;;2.64;83.56;100424.35;226277;1274;22581;-77
2024/01/27 21:05:01;;;;;;;13.70;5.00;;;;;;;2.64;83.56;100431.79;226398;1270;22572;-77
2024/01/27 21:10:04;;;;;;;18.90;5.70;;;;;;;2.67;83.74;100437.52;226282;1273;22543;-77
2024/01/27 21:15:06;;;;;;;17.30;5.60;;;;;;;2.70;83.75;100439.91;226315;1251;22580;-77
2024/01/27 21:20:11;;;;;;;19.00;5.80;;;;;;;2.72;83.62;100446.20;226249;1273;22526;-77
2024/01/27 21:25:13;;;;;;;15.50;4.80;;;;;;;2.77;83.76;100453.41;226352;1271;22640;-76
2024/01/27 21:30:15;;;;;;;14.00;4.80;;;;;;;2.82;83.84;100464.90;226521;1270;23682;-78
2024/01/27 21:35:17;;;;;;;19.00;4.90;;;;;;;2.86;83.73;100459.06;226287;1274;22577;-77
2024/01/27 21:40:21;;;;;;;13.90;5.00;;;;;;;2.93;83.74;100462.50;226536;1273;22552;-77
2024/01/27 21:45:23;;;;;;;15.70;4.80;;;;;;;2.98;83.81;100462.00;226340;1273;22545;-76
2024/01/27 21:50:25;;;;;;;13.80;4.30;;;;;;;3.02;83.77;100473.88;226215;1274;23105;-77
2024/01/27 21:55:27;;;;;;;17.60;5.30;;;;;;;3.05;83.64;100477.19;226258;1274;22548;-76
2024/01/27 22:00:29;;;;;;;17.40;4.60;;;;;;;3.08;83.76;100485.19;226559;1267;22679;-76
2024/01/27 22:05:32;;;;;;;14.00;4.60;;;;;;;3.10;83.64;100487.13;226324;1274;22548;-77
2024/01/27 22:10:35;;;;;;;14.10;5.10;;;;;;;3.12;83.77;100491.35;226517;1274;22539;-77
2024/01/27 22:15:38;;;;;;;12.20;5.20;;;;;;;3.15;83.69;100495.66;226384;1274;23355;-77
2024/01/27 22:20:41;;;;;;;18.10;5.80;;;;;;;3.18;83.79;100499.11;226637;1270;25259;-77
2024/01/27 22:25:43;;;;;;;16.60;5.30;;;;;;;3.21;83.81;100499.16;226367;1273;22645;-78
2024/01/27 22:30:45;;;;;;;14.40;5.50;;;;;;;3.23;83.80;100504.23;226369;1272;23649;-76
2024/01/27 22:35:47;;;;;;;14.80;4.80;;;;;;;3.26;83.75;100504.39;226286;1273;22557;-77
2024/01/27 22:40:49;;;;;;;18.50;5.50;;;;;;;3.28;83.70;100510.85;226318;1272;22566;-77
2024/01/27 22:45:51;;;;;;;15.60;5.00;;;;;;;3.29;83.69;100508.85;226392;1272;22544;-76
2024/01/27 22:50:55;;;;;;;14.30;5.40;;;;;;;3.32;83.82;100514.80;226319;1274;22584;-76
2024/01/27 22:55:57;;;;;;;25.00;5.50;;;;;;;3.34;83.84;100516.90;226246;1274;22547;-77
2024/01/27 23:00:59;;;;;;;13.90;6.10;;;;;;;3.37;83.66;100521.23;226341;1274;23040;-76
2024/01/27 23:06:02;;;;;;;16.30;5.60;;;;;;;3.39;83.49;100521.64;226647;1273;22552;-76
2024/01/27 23:11:04;;;;;;;12.90;5.00;;;;;;;3.42;83.72;100528.19;226271;1274;22577;-77
2024/01/27 23:16:06;;;;;;;15.30;5.60;;;;;;;3.44;83.67;100533.84;226416;1269;22617;-76
2024/01/27 23:21:09;;;;;;;18.30;5.10;;;;;;;3.44;83.70;100527.02;226408;1274;22540;-77
2024/01/27 23:26:11;;;;;;;15.30;4.80;;;;;;;3.46;83.66;100534.41;226285;1274;22567;-76
2024/01/27 23:31:13;;;;;;;16.30;4.80;;;;;;;3.48;83.70;100532.00;226369;1273;22586;-76